createdAt,value
2023-05-03T00:00:30.346Z,7.87
2023-05-03T00:02:58.656Z,6.43
2023-05-03T00:05:30.050Z,6.13
2023-05-03T00:07:59.409Z,6.43
2023-05-03T00:10:27.926Z,6.70
2023-05-03T00:12:57.501Z,6.80
2023-05-03T00:15:26.059Z,7.53
2023-05-03T00:17:54.418Z,8.03
2023-05-03T00:20:23.177Z,8.97
2023-05-03T00:22:52.016Z,8.10
2023-05-03T00:25:20.322Z,7.63
2023-05-03T00:27:48.613Z,7.57
2023-05-03T00:30:18.639Z,7.50
2023-05-03T00:32:47.002Z,7.43
2023-05-03T00:35:24.421Z,7.07
2023-05-03T00:37:52.688Z,6.30
2023-05-03T00:40:21.048Z,6.27
2023-05-03T00:42:49.342Z,7.40
2023-05-03T00:45:17.801Z,7.10
2023-05-03T00:47:46.377Z,7.80
2023-05-03T00:50:15.168Z,6.77
2023-05-03T00:52:43.830Z,7.23
2023-05-03T00:55:12.590Z,6.70
2023-05-03T00:57:41.486Z,7.13
2023-05-03T01:00:11.447Z,7.60
2023-05-03T01:02:40.219Z,5.93
2023-05-03T01:05:08.956Z,5.40
2023-05-03T01:08:00.788Z,6.77
2023-05-03T01:10:49.588Z,5.60
2023-05-03T01:13:50.142Z,5.10
2023-05-03T01:16:41.755Z,7.00
2023-05-03T01:19:30.453Z,5.97
2023-05-03T01:22:12.196Z,6.17
2023-05-03T01:24:45.830Z,6.97
2023-05-03T01:27:14.581Z,6.50
2023-05-03T01:29:42.881Z,6.43
2023-05-03T01:32:20.260Z,6.40
2023-05-03T01:35:16.921Z,6.70
2023-05-03T01:37:45.576Z,8.00
2023-05-03T01:40:20.600Z,8.90
2023-05-03T01:42:49.463Z,9.97
2023-05-03T01:45:18.287Z,9.13
2023-05-03T01:47:46.774Z,7.90
2023-05-03T01:50:15.288Z,8.20
2023-05-03T01:52:43.571Z,8.60
2023-05-03T01:55:11.879Z,9.47
2023-05-03T01:57:40.213Z,8.67
2023-05-03T02:00:09.898Z,7.53
2023-05-03T02:02:38.299Z,9.30
2023-05-03T02:05:07.072Z,8.70
2023-05-03T02:07:36.206Z,7.33
2023-05-03T02:10:05.568Z,8.90
2023-05-03T02:12:36.565Z,9.03
2023-05-03T02:15:05.374Z,8.17
2023-05-03T02:17:34.968Z,7.70
2023-05-03T02:20:04.447Z,8.90
2023-05-03T02:22:33.999Z,8.00
2023-05-03T02:25:02.426Z,7.00
2023-05-03T02:27:30.828Z,8.20
2023-05-03T02:29:59.131Z,7.20
2023-05-03T02:32:27.735Z,8.67
2023-05-03T02:34:56.514Z,8.50
2023-05-03T02:37:25.192Z,8.37
2023-05-03T02:39:53.579Z,9.00
2023-05-03T02:42:21.945Z,8.30
2023-05-03T02:44:50.325Z,8.40
2023-05-03T02:47:18.692Z,8.90
2023-05-03T02:49:47.711Z,7.90
2023-05-03T02:52:16.024Z,8.67
2023-05-03T02:54:47.994Z,8.77
2023-05-03T02:57:16.621Z,7.90
2023-05-03T02:59:45.062Z,8.60
2023-05-03T03:02:13.455Z,8.20
2023-05-03T03:04:41.773Z,8.30
2023-05-03T03:07:10.287Z,9.67
2023-05-03T03:09:38.680Z,8.40
2023-05-03T03:12:07.278Z,9.50
2023-05-03T03:14:35.629Z,10.03
2023-05-03T03:17:04.219Z,9.47
2023-05-03T03:19:32.538Z,8.20
2023-05-03T03:22:00.910Z,9.73
2023-05-03T03:24:29.358Z,9.90
2023-05-03T03:26:57.650Z,8.13
2023-05-03T03:29:26.787Z,8.43
2023-05-03T03:31:55.168Z,10.03
2023-05-03T03:34:23.564Z,8.80
2023-05-03T03:36:51.884Z,7.93
2023-05-03T03:39:20.188Z,7.77
2023-05-03T03:41:48.717Z,8.23
2023-05-03T03:44:17.188Z,9.70
2023-05-03T03:46:45.655Z,8.87
2023-05-03T03:49:14.309Z,7.70
2023-05-03T03:51:42.637Z,8.03
2023-05-03T03:54:11.095Z,6.83
2023-05-03T03:56:39.431Z,7.10
2023-05-03T03:59:08.915Z,6.67
2023-05-03T04:01:37.258Z,7.80
2023-05-03T04:04:06.206Z,7.90
2023-05-03T04:06:35.634Z,9.90
2023-05-03T04:09:03.991Z,7.60
2023-05-03T04:11:32.507Z,7.03
2023-05-03T04:14:00.935Z,6.83
2023-05-03T04:16:29.254Z,6.53
2023-05-03T04:18:57.581Z,6.63
2023-05-03T04:21:25.902Z,6.23
2023-05-03T04:23:54.176Z,6.50
2023-05-03T04:26:31.774Z,11.60
2023-05-03T04:29:01.099Z,9.67
2023-05-03T04:31:29.414Z,8.57
2023-05-03T04:33:58.788Z,7.77
2023-05-03T04:36:27.402Z,7.40
2023-05-03T04:38:55.667Z,7.73
2023-05-03T04:41:25.183Z,8.27
2023-05-03T04:43:53.993Z,7.33
2023-05-03T04:46:22.716Z,7.57
2023-05-03T04:48:51.007Z,7.23
2023-05-03T04:51:19.488Z,6.63
2023-05-03T04:53:47.790Z,7.33
2023-05-03T04:56:16.452Z,7.20
2023-05-03T04:58:45.305Z,7.60
2023-05-03T05:01:13.638Z,7.87
2023-05-03T05:03:42.100Z,8.20
2023-05-03T05:06:13.056Z,8.67
2023-05-03T05:08:41.406Z,10.67
2023-05-03T05:11:09.707Z,9.87
2023-05-03T05:13:38.011Z,9.50
2023-05-03T05:16:06.738Z,8.50
2023-05-03T05:18:35.627Z,8.70
2023-05-03T05:21:04.264Z,9.10
2023-05-03T05:23:32.601Z,10.60
2023-05-03T05:26:01.374Z,9.53
2023-05-03T05:28:30.373Z,9.33
2023-05-03T05:30:58.764Z,9.10
2023-05-03T05:33:27.086Z,9.70
2023-05-03T05:35:55.499Z,10.33
2023-05-03T05:38:23.792Z,9.30
2023-05-03T05:40:52.057Z,9.47
2023-05-03T05:43:20.482Z,9.43
2023-05-03T05:45:48.832Z,9.50
2023-05-03T05:48:17.181Z,11.90
2023-05-03T05:50:45.727Z,11.37
2023-05-03T05:53:14.008Z,11.53
2023-05-03T05:55:42.410Z,11.40
2023-05-03T05:58:12.817Z,11.30
2023-05-03T06:00:41.786Z,10.70
2023-05-03T06:03:10.178Z,11.27
2023-05-03T06:05:38.686Z,13.00
2023-05-03T06:08:07.754Z,13.53
2023-05-03T06:10:36.150Z,12.90
2023-05-03T06:13:04.639Z,13.80
2023-05-03T06:15:32.940Z,11.60
2023-05-03T06:18:01.391Z,14.50
2023-05-03T06:20:29.696Z,12.50
2023-05-03T06:22:58.042Z,14.23
2023-05-03T06:25:26.385Z,13.80
2023-05-03T06:27:54.794Z,13.90
2023-05-03T06:30:24.475Z,12.87
2023-05-03T06:32:52.874Z,16.57
2023-05-03T06:35:22.564Z,15.37
2023-05-03T06:37:50.905Z,17.60
2023-05-03T06:40:19.494Z,15.27
2023-05-03T06:42:47.850Z,13.47
2023-05-03T06:45:16.219Z,12.83
2023-05-03T06:47:44.626Z,13.13
2023-05-03T06:50:13.063Z,14.80
2023-05-03T06:52:41.994Z,15.60
2023-05-03T06:55:10.583Z,15.93
2023-05-03T06:57:39.957Z,14.83
2023-05-03T07:00:09.289Z,12.90
2023-05-03T07:02:38.165Z,12.17
2023-05-03T07:05:07.069Z,12.20
2023-05-03T07:07:36.242Z,15.20
2023-05-03T07:10:05.477Z,15.60
2023-05-03T07:12:34.002Z,12.60
2023-05-03T07:15:02.306Z,14.00
2023-05-03T07:17:30.858Z,13.70
2023-05-03T07:19:59.148Z,12.43
2023-05-03T07:22:28.297Z,11.70
2023-05-03T07:24:59.722Z,12.23
2023-05-03T07:27:28.521Z,11.43
2023-05-03T07:29:56.908Z,12.93
2023-05-03T07:32:25.291Z,14.30
2023-05-03T07:34:53.641Z,12.93
2023-05-03T07:37:22.730Z,14.90
2023-05-03T07:39:51.008Z,15.57
2023-05-03T07:42:19.592Z,15.47
2023-05-03T07:44:47.899Z,13.63
2023-05-03T07:47:16.348Z,13.13
2023-05-03T07:49:44.645Z,15.57
2023-05-03T07:52:12.936Z,13.57
2023-05-03T07:54:42.359Z,13.67
2023-05-03T07:57:10.692Z,12.20
2023-05-03T07:59:39.723Z,12.23
2023-05-03T08:02:08.657Z,11.30
2023-05-03T08:04:37.354Z,11.30
2023-05-03T08:07:06.115Z,11.80
2023-05-03T08:09:34.452Z,13.63
2023-05-03T08:12:03.925Z,13.03
2023-05-03T08:14:32.184Z,11.07
2023-05-03T08:17:00.815Z,11.63
2023-05-03T08:19:29.092Z,11.47
2023-05-03T08:21:57.392Z,12.10
2023-05-03T08:24:26.354Z,10.93
2023-05-03T08:26:54.651Z,10.97
2023-05-03T08:29:22.952Z,11.43
2023-05-03T08:31:51.363Z,12.43
2023-05-03T08:34:19.627Z,13.17
2023-05-03T08:36:47.925Z,13.40
2023-05-03T08:39:16.291Z,11.30
2023-05-03T08:41:45.136Z,13.40
2023-05-03T08:44:20.860Z,14.00
2023-05-03T08:46:49.190Z,11.73
2023-05-03T08:49:19.387Z,13.40
2023-05-03T08:51:50.615Z,13.10
2023-05-03T08:54:21.388Z,12.80
2023-05-03T08:56:50.154Z,11.63
2023-05-03T08:59:18.526Z,11.40
2023-05-03T09:01:46.929Z,10.93
2023-05-03T09:04:15.866Z,10.20
2023-05-03T09:06:44.298Z,11.33
2023-05-03T09:09:12.937Z,10.90
2023-05-03T09:11:41.240Z,12.60
2023-05-03T09:14:19.817Z,11.37
2023-05-03T09:16:48.914Z,11.20
2023-05-03T09:19:17.590Z,12.73
2023-05-03T09:21:47.926Z,11.60
2023-05-03T09:24:18.175Z,14.23
2023-05-03T09:26:48.033Z,19.60
2023-05-03T09:29:34.894Z,17.17
2023-05-03T09:32:09.192Z,15.77
2023-05-03T09:34:38.051Z,15.10
2023-05-03T09:37:07.359Z,13.47
2023-05-03T09:39:37.657Z,12.50
2023-05-03T09:42:13.791Z,11.20
2023-05-03T09:44:49.850Z,13.50
2023-05-03T09:47:22.514Z,12.77
2023-05-03T09:49:50.858Z,11.70
2023-05-03T09:52:19.174Z,14.50
2023-05-03T09:54:47.955Z,13.60
2023-05-03T09:57:16.711Z,13.50
2023-05-03T09:59:47.122Z,14.20
2023-05-03T10:02:17.374Z,14.30
2023-05-03T10:04:49.182Z,15.13
2023-05-03T10:07:21.508Z,15.27
2023-05-03T10:09:50.119Z,13.80
2023-05-03T10:12:20.453Z,17.17
2023-05-03T10:14:49.663Z,16.20
2023-05-03T10:17:47.018Z,23.33
2023-05-03T10:20:28.240Z,22.63
2023-05-03T10:23:14.200Z,18.00
2023-05-03T10:26:08.254Z,16.07
2023-05-03T10:28:37.936Z,14.20
2023-05-03T10:31:06.889Z,14.43
2023-05-03T10:33:36.011Z,13.43
2023-05-03T10:36:11.111Z,13.83
2023-05-03T10:38:39.708Z,12.00
2023-05-03T10:41:08.598Z,10.50
2023-05-03T10:43:37.113Z,12.77
2023-05-03T10:46:07.321Z,11.70
2023-05-03T10:48:36.514Z,11.70
2023-05-03T10:51:37.627Z,11.00
2023-05-03T10:54:06.008Z,11.07
2023-05-03T10:56:34.320Z,10.23
2023-05-03T10:59:02.839Z,14.37
2023-05-03T11:01:32.878Z,10.50
2023-05-03T11:04:13.526Z,10.37
2023-05-03T11:06:42.615Z,9.40
2023-05-03T11:09:14.655Z,9.20
2023-05-03T11:11:44.173Z,9.63
2023-05-03T11:14:14.462Z,10.83
2023-05-03T11:16:48.464Z,9.00
2023-05-03T11:19:17.021Z,9.73
2023-05-03T11:21:46.500Z,11.73
2023-05-03T11:24:16.400Z,10.73
2023-05-03T11:26:44.770Z,10.23
2023-05-03T11:29:14.725Z,12.67
2023-05-03T11:31:47.144Z,12.57
2023-05-03T11:34:16.629Z,11.80
2023-05-03T11:36:45.219Z,10.97
2023-05-03T11:39:15.312Z,12.83
2023-05-03T11:41:43.766Z,13.00
2023-05-03T11:44:17.815Z,14.30
2023-05-03T11:46:47.978Z,12.50
2023-05-03T11:49:20.353Z,12.67
2023-05-03T11:51:52.586Z,11.40
2023-05-03T11:54:26.895Z,10.93
2023-05-03T11:57:00.147Z,16.70
2023-05-03T11:59:41.822Z,16.80
2023-05-03T12:02:15.968Z,19.47
2023-05-03T12:04:46.197Z,25.63
2023-05-03T12:07:18.562Z,13.30
2023-05-03T12:10:05.692Z,12.93
2023-05-03T12:12:43.391Z,12.67
2023-05-03T12:15:15.980Z,12.87
2023-05-03T12:17:49.837Z,12.60
2023-05-03T12:22:58.464Z,11.80
2023-05-03T12:25:29.076Z,10.80
2023-05-03T12:28:19.499Z,10.50
2023-05-03T12:30:52.740Z,11.20
2023-05-03T12:33:23.211Z,13.10
2023-05-03T12:35:54.106Z,14.87
2023-05-03T12:38:25.063Z,21.67
2023-05-03T12:40:54.549Z,22.73
2023-05-03T12:43:23.294Z,14.57
2023-05-03T12:46:09.409Z,13.83
2023-05-03T12:48:40.252Z,12.90
2023-05-03T12:51:19.578Z,9.63
2023-05-03T12:53:54.512Z,10.60
2023-05-03T12:56:24.713Z,10.43
2023-05-03T12:59:20.171Z,10.30
2023-05-03T13:06:45.672Z,13.60
2023-05-03T13:09:21.483Z,10.00
2023-05-03T13:11:51.608Z,11.27
2023-05-03T13:14:20.425Z,12.60
2023-05-03T13:16:52.714Z,11.90
2023-05-03T13:19:21.179Z,15.20
2023-05-03T13:21:50.205Z,14.80
2023-05-03T13:24:18.588Z,13.17
2023-05-03T13:26:47.771Z,13.57
2023-05-03T13:29:16.057Z,17.03
2023-05-03T13:31:44.456Z,14.23
2023-05-03T13:34:12.803Z,12.90
2023-05-03T13:36:41.199Z,14.70
2023-05-03T13:39:11.121Z,13.10
2023-05-03T13:41:42.927Z,14.30
2023-05-03T13:44:12.296Z,14.17
2023-05-03T13:46:41.826Z,14.03
2023-05-03T13:49:10.358Z,14.00
2023-05-03T13:51:39.209Z,17.83
2023-05-03T13:54:08.456Z,16.57
2023-05-03T13:56:37.309Z,13.40
2023-05-03T13:59:09.866Z,17.50
2023-05-03T14:01:38.774Z,14.27
2023-05-03T14:04:07.428Z,14.60
2023-05-03T14:06:36.989Z,13.67
2023-05-03T14:09:07.401Z,15.40
2023-05-03T14:14:04.325Z,14.10
2023-05-03T14:16:40.845Z,13.33
2023-05-03T14:19:14.803Z,15.00
2023-05-03T14:21:43.997Z,14.07
2023-05-03T14:24:13.173Z,13.03
2023-05-03T14:26:42.066Z,13.60
2023-05-03T14:29:10.378Z,14.10
2023-05-03T14:31:38.743Z,14.30
2023-05-03T14:34:07.155Z,13.17
2023-05-03T14:36:39.248Z,11.63
2023-05-03T14:39:08.331Z,12.73
2023-05-03T14:41:36.848Z,11.70
2023-05-03T14:44:05.192Z,11.63
2023-05-03T14:46:43.598Z,12.40
2023-05-03T14:49:11.940Z,13.20
2023-05-03T14:54:08.581Z,13.90
2023-05-03T14:56:37.022Z,11.90
2023-05-03T14:59:05.367Z,12.97
2023-05-03T15:01:33.749Z,13.70
2023-05-03T15:04:02.111Z,12.17
2023-05-03T15:06:33.935Z,13.20
2023-05-03T15:09:02.953Z,12.87
2023-05-03T15:11:31.496Z,12.70
2023-05-03T15:13:59.901Z,13.70
2023-05-03T15:16:28.379Z,13.63
2023-05-03T15:18:56.838Z,12.60
2023-05-03T15:21:25.227Z,13.20
2023-05-03T15:23:54.669Z,14.73
2023-05-03T15:26:23.334Z,12.97
2023-05-03T15:28:52.783Z,12.23
2023-05-03T15:31:21.241Z,13.10
2023-05-03T15:33:49.630Z,12.30
2023-05-03T15:36:17.990Z,13.93
2023-05-03T15:38:47.476Z,10.00
2023-05-03T15:41:15.974Z,9.03
2023-05-03T15:43:45.695Z,9.13
2023-05-03T15:46:14.121Z,11.00
2023-05-03T15:48:42.534Z,10.73
2023-05-03T15:51:10.836Z,9.70
2023-05-03T15:53:39.142Z,11.10
2023-05-03T15:56:08.544Z,10.00
2023-05-03T15:58:37.484Z,9.60
2023-05-03T16:01:06.025Z,12.57
2023-05-03T16:03:34.334Z,10.50
2023-05-03T16:06:02.804Z,11.37
2023-05-03T16:08:31.895Z,12.83
2023-05-03T16:11:00.223Z,13.23
2023-05-03T16:13:30.561Z,12.93
2023-05-03T16:15:58.918Z,11.23
2023-05-03T16:18:27.764Z,10.87
2023-05-03T16:20:56.211Z,11.17
2023-05-03T16:23:24.520Z,10.97
2023-05-03T16:25:52.807Z,10.10
2023-05-03T16:28:21.137Z,13.00
2023-05-03T16:30:49.450Z,11.70
2023-05-03T16:33:18.971Z,12.00
2023-05-03T16:35:47.261Z,12.97
2023-05-03T16:38:15.694Z,11.60
2023-05-03T16:40:44.158Z,11.90
2023-05-03T16:43:12.459Z,11.93
2023-05-03T16:45:40.804Z,13.53
2023-05-03T16:48:11.536Z,11.80
2023-05-03T16:50:43.321Z,11.90
2023-05-03T16:53:13.878Z,12.33
2023-05-03T16:55:42.307Z,12.10
2023-05-03T16:58:10.660Z,14.63
2023-05-03T17:00:39.038Z,11.47
2023-05-03T17:03:09.505Z,13.37
2023-05-03T17:05:38.428Z,14.00
2023-05-03T17:08:10.207Z,11.60
2023-05-03T17:10:42.395Z,11.53
2023-05-03T17:13:11.182Z,15.00
2023-05-03T17:15:39.818Z,11.63
2023-05-03T17:18:09.422Z,12.60
2023-05-03T17:20:37.837Z,11.17
2023-05-03T17:23:06.588Z,13.60
2023-05-03T17:25:34.869Z,13.23
2023-05-03T17:28:03.271Z,12.17
2023-05-03T17:30:31.943Z,14.50
2023-05-03T17:33:00.253Z,12.87
2023-05-03T17:35:28.592Z,12.80
2023-05-03T17:37:57.837Z,13.77
2023-05-03T17:40:26.298Z,14.00
2023-05-03T17:42:54.753Z,13.17
2023-05-03T17:45:23.186Z,12.43
2023-05-03T17:47:52.340Z,14.83
2023-05-03T17:50:20.646Z,13.20
2023-05-03T17:52:49.006Z,13.03
2023-05-03T17:55:18.291Z,15.93
2023-05-03T17:57:46.792Z,13.50
2023-05-03T18:00:19.885Z,13.43
2023-05-03T18:02:49.070Z,14.17
2023-05-03T18:05:17.690Z,11.10
2023-05-03T18:07:46.127Z,11.17
2023-05-03T18:10:17.123Z,13.70
2023-05-03T18:12:45.533Z,11.73
2023-05-03T18:15:16.131Z,13.27
2023-05-03T18:17:44.862Z,12.20
2023-05-03T18:20:14.376Z,15.23
2023-05-03T18:22:42.976Z,15.33
2023-05-03T18:25:11.288Z,15.60
2023-05-03T18:27:39.922Z,15.07
2023-05-03T18:30:08.716Z,11.37
2023-05-03T18:32:37.096Z,12.80
2023-05-03T18:35:05.608Z,12.43
2023-05-03T18:37:33.921Z,13.00
2023-05-03T18:40:02.474Z,15.10
2023-05-03T18:42:32.631Z,13.60
2023-05-03T18:45:00.978Z,12.30
2023-05-03T18:47:29.468Z,11.37
2023-05-03T18:49:57.829Z,13.43
2023-05-03T18:52:26.654Z,8.23
2023-05-03T18:54:55.285Z,8.70
2023-05-03T18:57:23.585Z,11.10
2023-05-03T19:00:00.110Z,9.90
2023-05-03T19:02:31.829Z,10.37
2023-05-03T19:05:00.894Z,9.03
2023-05-03T19:07:30.501Z,8.00
2023-05-03T19:09:58.939Z,7.97
2023-05-03T19:12:27.589Z,8.87
2023-05-03T19:14:55.968Z,7.53
2023-05-03T19:17:24.321Z,6.87
2023-05-03T19:19:52.722Z,6.20
2023-05-03T19:22:21.131Z,5.80
2023-05-03T19:24:50.129Z,6.83
2023-05-03T19:27:18.472Z,5.00
2023-05-03T19:29:46.924Z,5.83
2023-05-03T19:32:15.267Z,6.20
2023-05-03T19:34:43.543Z,6.50
2023-05-03T19:37:12.488Z,6.13
2023-05-03T19:39:40.768Z,6.80
2023-05-03T19:42:09.722Z,6.40
2023-05-03T19:44:38.524Z,6.20
2023-05-03T19:47:07.057Z,5.10
2023-05-03T19:49:35.356Z,6.80
2023-05-03T19:52:05.233Z,6.80
2023-05-03T19:54:33.916Z,6.47
2023-05-03T19:57:09.159Z,6.80
2023-05-03T19:59:37.579Z,5.90
2023-05-03T20:02:05.976Z,5.87
2023-05-03T20:04:34.331Z,5.40
2023-05-03T20:07:03.386Z,5.40
2023-05-03T20:09:31.833Z,5.30
2023-05-03T20:12:00.509Z,5.30
2023-05-03T20:14:28.885Z,5.23
2023-05-03T20:16:57.535Z,5.47
2023-05-03T20:19:26.608Z,5.03
2023-05-03T20:21:54.975Z,5.50
2023-05-03T20:24:23.422Z,5.60
2023-05-03T20:26:52.933Z,5.10
2023-05-03T20:29:21.270Z,5.03
2023-05-03T20:31:51.923Z,4.73
2023-05-03T20:34:20.588Z,5.13
2023-05-03T20:36:49.004Z,4.37
2023-05-03T20:39:17.293Z,4.23
2023-05-03T20:41:45.622Z,4.73
2023-05-03T20:44:14.579Z,4.47
2023-05-03T20:46:42.921Z,3.40
2023-05-03T20:49:11.439Z,4.50
2023-05-03T20:51:39.752Z,4.50
2023-05-03T20:54:08.052Z,4.60
2023-05-03T20:56:36.566Z,3.80
2023-05-03T20:59:05.671Z,4.20
2023-05-03T21:01:34.001Z,4.50
2023-05-03T21:04:03.670Z,5.00
2023-05-03T21:06:31.977Z,3.93
2023-05-03T21:09:00.741Z,4.10
2023-05-03T21:11:29.081Z,3.87
2023-05-03T21:13:58.145Z,3.30
2023-05-03T21:16:28.156Z,4.00
2023-05-03T21:18:56.585Z,4.00
2023-05-03T21:21:25.102Z,3.97
2023-05-03T21:23:53.412Z,3.73
2023-05-03T21:26:21.995Z,4.10
2023-05-03T21:28:50.416Z,3.80
2023-05-03T21:31:18.723Z,4.23
2023-05-03T21:33:47.077Z,3.97
2023-05-03T21:36:15.610Z,4.50
2023-05-03T21:38:44.002Z,4.60
2023-05-03T21:41:12.313Z,4.90
2023-05-03T21:43:40.669Z,4.33
2023-05-03T21:46:09.532Z,4.67
2023-05-03T21:48:38.313Z,4.40
2023-05-03T21:51:06.632Z,5.40
2023-05-03T21:53:36.205Z,6.27
2023-05-03T21:56:04.667Z,5.43
2023-05-03T21:58:32.961Z,5.40
2023-05-03T22:01:01.229Z,6.53
2023-05-03T22:03:29.642Z,5.03
2023-05-03T22:05:58.450Z,6.43
2023-05-03T22:08:26.954Z,6.10
2023-05-03T22:10:56.968Z,5.40
2023-05-03T22:13:25.313Z,6.33
2023-05-03T22:15:53.790Z,6.33
2023-05-03T22:18:22.066Z,6.00
2023-05-03T22:20:50.374Z,5.90
2023-05-03T22:23:18.687Z,5.57
2023-05-03T22:25:46.974Z,6.07
2023-05-03T22:28:15.314Z,5.50
2023-05-03T22:30:43.581Z,7.27
2023-05-03T22:33:12.316Z,7.07
2023-05-03T22:35:40.693Z,7.67
2023-05-03T22:38:09.406Z,7.50
2023-05-03T22:40:37.685Z,8.67
2023-05-03T22:43:06.200Z,7.80
2023-05-03T22:45:35.149Z,9.50
2023-05-03T22:48:03.526Z,8.13
2023-05-03T22:50:32.221Z,8.40
2023-05-03T22:53:00.529Z,8.30
2023-05-03T22:55:29.912Z,10.10
2023-05-03T22:57:58.280Z,7.60
2023-05-03T23:00:27.638Z,7.57
2023-05-03T23:02:56.382Z,7.47
2023-05-03T23:05:24.783Z,6.80
2023-05-03T23:07:53.444Z,6.37
2023-05-03T23:10:21.751Z,7.53
2023-05-03T23:12:50.873Z,7.33
2023-05-03T23:15:19.253Z,8.13
2023-05-03T23:17:47.561Z,6.13
2023-05-03T23:20:16.410Z,6.50
2023-05-03T23:22:44.768Z,6.90
2023-05-03T23:25:13.164Z,5.90
2023-05-03T23:27:41.464Z,6.37
2023-05-03T23:30:10.858Z,6.17
2023-05-03T23:32:40.114Z,6.13
2023-05-03T23:35:09.255Z,5.63
2023-05-03T23:37:38.204Z,6.40
2023-05-03T23:40:07.915Z,5.73
2023-05-03T23:42:36.388Z,6.63
2023-05-03T23:45:04.816Z,5.47
2023-05-03T23:47:33.114Z,6.20
2023-05-03T23:50:02.040Z,5.97
2023-05-03T23:52:30.519Z,5.03
2023-05-03T23:54:58.826Z,6.00
2023-05-03T23:57:27.515Z,5.13
2023-05-03T23:59:55.844Z,4.40
